F/V Argentario — FGPE — position and weather

sailwx.info

Track history (hours):
 
Tides and Currents Weather Stations Pressure Air Temp Water Temp Dewpoint Dewpoint Depression Visibility Wind Speed Wind Dir Waves Ship Positions

F/V Argentario

Last reported at 2015-Mar-29 22:33 UTC. Time now 2015-Apr-01 14:26 UTC.
Position N 46°17' W 001°60'.

Length 22 m; draft 3.4 m.

Type: Fishing. MMSI: 228975000.

Date/timePositionNaut miles runAvg speedWind from/ knotsBaromVisibWave heightAir tempDewpointWater temp
2015-Mar-29 22:33N 46°17' W 001°60'6 5.8
2015-Mar-29 21:33N 46°22' W 001°55'6 5.8
2015-Mar-29 20:33N 46°26' W 001°50'4 4.1
2015-Mar-29 19:33N 46°30' W 001°47'3 2.6
2015-Mar-29 18:33N 46°27' W 001°49'9 9.2
2015-Mar-29 17:33N 46°20' W 001°56'10 0.3
2015-Mar-28 02:28N 46°10' W 001°57'9 9.9
2015-Mar-28 01:33N 46°18' W 001°53'10 9.8
2015-Mar-28 00:33N 46°27' W 001°48'3 2.6
2015-Mar-27 23:33N 46°30' W 001°47'1 1.3
2015-Mar-27 22:33N 46°29' W 001°47'10 9.8
2015-Mar-27 21:33N 46°20' W 001°53'  
2015-Mar-25 10:33N 46°29' W 002°17'  
Track history (hours):
 
Tides and Currents Weather Stations Pressure Air Temp Water Temp Dewpoint Dewpoint Depression Visibility Wind Speed Wind Dir Waves Ship Positions

F/V Argentario

Last reported at 2015-Mar-29 22:33 UTC. Time now 2015-Apr-01 14:26 UTC.
Position N 46°17' W 001°60'.

Length 22 m; draft 3.4 m.

Type: Fishing. MMSI: 228975000.

Date/timePositionNaut miles runAvg speedWind from/ knotsBaromVisibWave heightAir tempDewpointWater temp
2015-Mar-29 22:33N 46°17' W 001°60'6 5.8
2015-Mar-29 21:33N 46°22' W 001°55'6 5.8
2015-Mar-29 20:33N 46°26' W 001°50'4 4.1
2015-Mar-29 19:33N 46°30' W 001°47'3 2.6
2015-Mar-29 18:33N 46°27' W 001°49'9 9.2
2015-Mar-29 17:33N 46°20' W 001°56'10 0.3
2015-Mar-28 02:28N 46°10' W 001°57'9 9.9
2015-Mar-28 01:33N 46°18' W 001°53'10 9.8
2015-Mar-28 00:33N 46°27' W 001°48'3 2.6
2015-Mar-27 23:33N 46°30' W 001°47'1 1.3
2015-Mar-27 22:33N 46°29' W 001°47'10 9.8
2015-Mar-27 21:33N 46°20' W 001°53'  
2015-Mar-25 10:33N 46°29' W 002°17'  

Dump ship's entire track history